createdAt,value
2018-09-09T00:01:40.788Z,12.70
2018-09-09T00:04:09.314Z,12.80
2018-09-09T00:06:37.854Z,12.80
2018-09-09T00:09:06.985Z,12.80
2018-09-09T00:11:35.598Z,12.80
2018-09-09T00:14:04.172Z,12.80
2018-09-09T00:16:32.667Z,12.90
2018-09-09T00:19:01.228Z,12.80
2018-09-09T00:21:29.793Z,12.80
2018-09-09T00:23:58.332Z,12.80
2018-09-09T00:26:26.844Z,12.80
2018-09-09T00:28:55.393Z,12.80
2018-09-09T00:31:23.957Z,12.80
2018-09-09T00:33:52.493Z,12.80
2018-09-09T00:36:21.120Z,12.80
2018-09-09T00:38:49.664Z,12.80
2018-09-09T00:41:18.167Z,12.80
2018-09-09T00:43:46.740Z,12.80
2018-09-09T00:46:15.250Z,12.70
2018-09-09T00:48:43.807Z,12.80
2018-09-09T00:51:17.654Z,12.70
2018-09-09T00:53:47.785Z,12.70
2018-09-09T00:56:17.139Z,12.70
2018-09-09T00:58:45.646Z,12.70
2018-09-09T01:01:17.191Z,12.70
2018-09-09T01:03:46.936Z,12.70
2018-09-09T01:06:15.556Z,12.70
2018-09-09T01:08:44.104Z,12.70
2018-09-09T01:11:12.664Z,12.70
2018-09-09T01:13:41.179Z,12.70
2018-09-09T01:16:09.857Z,12.70
2018-09-09T01:18:38.432Z,12.70
2018-09-09T01:21:06.991Z,12.70
2018-09-09T01:23:35.553Z,12.70
2018-09-09T01:26:04.120Z,12.70
2018-09-09T01:28:32.653Z,12.70
2018-09-09T01:31:01.210Z,12.70
2018-09-09T01:33:29.756Z,12.70
2018-09-09T01:35:58.308Z,12.70
2018-09-09T01:38:26.886Z,12.80
2018-09-09T01:40:55.383Z,12.80
2018-09-09T01:43:23.918Z,12.80
2018-09-09T01:45:52.431Z,12.80
2018-09-09T01:48:20.993Z,12.80
2018-09-09T01:50:49.536Z,12.90
2018-09-09T01:53:18.084Z,12.80
2018-09-09T01:55:46.660Z,12.80
2018-09-09T01:58:15.195Z,12.90
2018-09-09T02:00:43.712Z,12.90
2018-09-09T02:03:12.275Z,12.90
2018-09-09T02:05:40.809Z,13.00
2018-09-09T02:08:09.574Z,13.00
2018-09-09T02:10:38.075Z,13.10
2018-09-09T02:13:06.616Z,13.10
2018-09-09T02:15:35.156Z,13.10
2018-09-09T02:18:03.692Z,13.10
2018-09-09T02:20:32.245Z,13.20
2018-09-09T02:23:00.800Z,13.20
2018-09-09T02:25:29.344Z,13.20
2018-09-09T02:27:57.847Z,13.20
2018-09-09T02:30:26.436Z,13.20
2018-09-09T02:32:54.945Z,13.20
2018-09-09T02:35:23.486Z,13.30
2018-09-09T02:37:51.984Z,13.30
2018-09-09T02:40:20.539Z,13.30
2018-09-09T02:42:49.062Z,13.30
2018-09-09T02:45:17.617Z,13.40
2018-09-09T02:47:46.124Z,13.40
2018-09-09T02:50:14.688Z,13.40
2018-09-09T02:52:43.189Z,13.40
2018-09-09T02:55:11.785Z,13.40
2018-09-09T02:57:40.302Z,13.40
2018-09-09T03:00:08.904Z,13.40
2018-09-09T03:02:37.466Z,13.40
2018-09-09T03:05:06.031Z,13.40
2018-09-09T03:07:34.554Z,13.40
2018-09-09T03:10:03.120Z,13.40
2018-09-09T03:12:31.688Z,13.50
2018-09-09T03:15:00.227Z,13.50
2018-09-09T03:17:28.764Z,13.50
2018-09-09T03:19:57.270Z,13.60
2018-09-09T03:22:25.817Z,13.60
2018-09-09T03:24:54.359Z,13.60
2018-09-09T03:27:23.012Z,13.60
2018-09-09T03:29:51.512Z,13.60
2018-09-09T03:32:20.089Z,13.60
2018-09-09T03:34:48.771Z,13.60
2018-09-09T03:37:17.309Z,13.70
2018-09-09T03:39:45.820Z,13.60
2018-09-09T03:42:14.355Z,13.70
2018-09-09T03:44:42.896Z,13.60
2018-09-09T03:47:11.391Z,13.60
2018-09-09T03:49:39.952Z,13.60
2018-09-09T03:52:08.463Z,13.60
2018-09-09T03:54:36.994Z,13.60
2018-09-09T03:57:05.539Z,13.60
2018-09-09T03:59:34.091Z,13.60
2018-09-09T04:02:02.647Z,13.60
2018-09-09T04:04:31.196Z,13.50
2018-09-09T04:06:59.690Z,13.50
2018-09-09T04:09:28.249Z,13.50
2018-09-09T04:11:56.816Z,13.50
2018-09-09T04:14:25.343Z,13.50
2018-09-09T04:16:53.883Z,13.50
2018-09-09T04:19:22.438Z,13.50
2018-09-09T04:21:51.905Z,13.50
2018-09-09T04:24:21.780Z,13.60
2018-09-09T04:26:50.336Z,13.60
2018-09-09T04:29:18.852Z,13.70
2018-09-09T04:31:47.436Z,13.70
2018-09-09T04:34:15.990Z,13.80
2018-09-09T04:36:44.484Z,13.80
2018-09-09T04:39:14.142Z,13.80
2018-09-09T04:41:42.915Z,13.80
2018-09-09T04:44:12.911Z,13.90
2018-09-09T04:46:41.575Z,13.90
2018-09-09T04:49:10.589Z,14.00
2018-09-09T04:51:39.325Z,14.00
2018-09-09T04:54:07.980Z,14.00
2018-09-09T04:56:36.518Z,14.00
2018-09-09T04:59:05.078Z,14.00
2018-09-09T05:01:33.645Z,14.10
2018-09-09T05:04:02.219Z,14.00
2018-09-09T05:06:30.794Z,14.00
2018-09-09T05:08:59.312Z,14.10
2018-09-09T05:11:27.839Z,14.10
2018-09-09T05:13:56.410Z,14.00
2018-09-09T05:16:25.018Z,14.00
2018-09-09T05:18:53.568Z,14.10
2018-09-09T05:21:22.077Z,14.00
2018-09-09T05:23:50.616Z,14.10
2018-09-09T05:26:19.157Z,14.10
2018-09-09T05:28:47.689Z,14.10
2018-09-09T05:31:16.315Z,14.10
2018-09-09T05:33:44.839Z,14.10
2018-09-09T05:36:13.415Z,14.10
2018-09-09T05:38:41.976Z,14.10
2018-09-09T05:41:10.494Z,14.20
2018-09-09T05:43:39.030Z,14.20
2018-09-09T05:46:07.589Z,14.20
2018-09-09T05:48:36.140Z,14.20
2018-09-09T05:51:05.080Z,14.30
2018-09-09T05:53:33.640Z,14.30
2018-09-09T05:56:02.157Z,14.30
2018-09-09T05:58:30.690Z,14.40
2018-09-09T06:00:59.252Z,14.30
2018-09-09T06:03:27.794Z,14.40
2018-09-09T06:05:56.365Z,14.40
2018-09-09T06:08:24.933Z,14.40
2018-09-09T06:10:53.911Z,14.40
2018-09-09T06:13:24.091Z,14.40
2018-09-09T06:15:52.660Z,14.50
2018-09-09T06:18:21.203Z,14.50
2018-09-09T06:20:49.782Z,14.50
2018-09-09T06:23:18.292Z,14.60
2018-09-09T06:25:46.843Z,14.60
2018-09-09T06:28:15.496Z,14.50
2018-09-09T06:30:44.151Z,14.30
2018-09-09T06:33:12.707Z,14.10
2018-09-09T06:35:41.244Z,14.10
2018-09-09T06:38:09.831Z,14.00
2018-09-09T06:40:38.336Z,13.90
2018-09-09T06:43:06.871Z,13.70
2018-09-09T06:45:35.421Z,13.60
2018-09-09T06:48:04.000Z,13.50
2018-09-09T06:50:32.585Z,13.50
2018-09-09T06:53:01.108Z,13.50
2018-09-09T06:55:29.701Z,13.50
2018-09-09T06:57:58.185Z,13.40
2018-09-09T07:00:26.690Z,13.50
2018-09-09T07:02:55.226Z,13.50
2018-09-09T07:05:23.792Z,13.50
2018-09-09T07:07:52.372Z,13.60
2018-09-09T07:10:20.935Z,13.60
2018-09-09T07:12:49.511Z,13.70
2018-09-09T07:15:18.057Z,13.70
2018-09-09T07:17:46.910Z,13.80
2018-09-09T07:20:15.485Z,13.90
2018-09-09T07:22:44.114Z,13.90
2018-09-09T07:25:12.617Z,14.00
2018-09-09T07:27:41.133Z,14.10
2018-09-09T07:30:09.695Z,14.30
2018-09-09T07:32:38.226Z,14.50
2018-09-09T07:35:06.853Z,14.70
2018-09-09T07:37:35.400Z,15.00
2018-09-09T07:40:03.939Z,15.20
2018-09-09T07:42:32.672Z,15.30
2018-09-09T07:45:01.204Z,15.40
2018-09-09T07:47:29.765Z,15.50
2018-09-09T07:49:58.307Z,15.50
2018-09-09T07:52:27.368Z,15.50
2018-09-09T07:54:55.898Z,15.50
2018-09-09T07:57:24.430Z,15.60
2018-09-09T07:59:53.169Z,15.60
2018-09-09T08:02:21.725Z,15.60
2018-09-09T08:04:50.244Z,15.60
2018-09-09T08:07:18.797Z,15.60
2018-09-09T08:09:47.373Z,15.60
2018-09-09T08:12:15.984Z,15.70
2018-09-09T08:14:45.240Z,15.70
2018-09-09T08:17:13.815Z,15.80
2018-09-09T08:19:42.315Z,16.00
2018-09-09T08:22:10.880Z,16.20
2018-09-09T08:24:39.494Z,16.40
2018-09-09T08:27:08.066Z,16.50
2018-09-09T08:29:36.599Z,16.50
2018-09-09T08:32:05.222Z,16.60
2018-09-09T08:34:37.328Z,16.70
2018-09-09T08:37:14.377Z,16.90
2018-09-09T08:42:29.524Z,17.30
2018-09-09T08:45:15.288Z,17.50
2018-09-09T08:48:06.048Z,17.50
2018-09-09T08:50:48.651Z,17.50
2018-09-09T08:53:34.395Z,17.70
2018-09-09T08:56:33.340Z,17.80
2018-09-09T08:59:16.555Z,17.80
2018-09-09T09:04:57.704Z,17.60
2018-09-09T09:07:33.626Z,17.50
2018-09-09T09:10:17.926Z,17.50
2018-09-09T09:16:08.070Z,17.80
2018-09-09T09:18:38.886Z,18.00
2018-09-09T09:24:17.466Z,18.40
2018-09-09T09:30:04.428Z,18.60
2018-09-09T09:44:25.993Z,19.10
2018-09-09T09:46:54.535Z,19.40
2018-09-09T09:49:23.050Z,19.50
2018-09-09T09:51:51.921Z,19.50
2018-09-09T09:54:20.467Z,19.60
2018-09-09T09:56:48.988Z,19.80
2018-09-09T09:59:24.551Z,19.70
2018-09-09T10:12:15.657Z,19.70
2018-09-09T10:20:44.585Z,20.20
2018-09-09T10:23:26.017Z,20.40
2018-09-09T10:29:40.222Z,20.70
2018-09-09T10:32:33.584Z,20.80
2018-09-09T10:35:11.212Z,20.90
2018-09-09T10:37:45.091Z,21.00
2018-09-09T10:40:22.823Z,21.30
2018-09-09T10:43:09.086Z,21.20
2018-09-09T10:49:27.968Z,21.10
2018-09-09T10:52:09.165Z,21.10
2018-09-09T10:54:51.938Z,21.20
2018-09-09T10:57:35.262Z,21.40
2018-09-09T11:00:05.698Z,21.70
2018-09-09T11:02:43.919Z,21.70
2018-09-09T11:05:30.079Z,21.80
2018-09-09T11:10:52.647Z,22.10
2018-09-09T11:13:21.175Z,22.10
2018-09-09T11:15:49.784Z,22.30
2018-09-09T11:18:18.263Z,22.60
2018-09-09T11:20:53.395Z,22.60
2018-09-09T11:23:21.930Z,22.50
2018-09-09T11:25:51.226Z,22.30
2018-09-09T11:28:19.770Z,22.10
2018-09-09T11:30:54.926Z,22.00
2018-09-09T11:33:23.468Z,21.90
2018-09-09T11:35:51.974Z,21.90
2018-09-09T11:38:20.515Z,21.90
2018-09-09T11:40:49.099Z,21.90
2018-09-09T11:43:17.528Z,21.90
2018-09-09T11:45:46.023Z,21.80
2018-09-09T11:48:14.555Z,21.80
2018-09-09T11:50:43.190Z,21.70
2018-09-09T11:53:11.675Z,21.60
2018-09-09T11:55:40.220Z,21.60
2018-09-09T11:58:08.771Z,21.70
2018-09-09T12:00:37.318Z,21.90
2018-09-09T12:03:06.044Z,22.00
2018-09-09T12:05:34.596Z,21.80
2018-09-09T12:08:03.080Z,21.50
2018-09-09T12:10:31.598Z,21.40
2018-09-09T12:13:00.100Z,21.30
2018-09-09T12:15:28.639Z,21.20
2018-09-09T12:17:57.165Z,21.40
2018-09-09T12:20:25.681Z,21.50
2018-09-09T12:22:54.166Z,21.60
2018-09-09T12:25:24.568Z,21.70
2018-09-09T12:27:53.111Z,21.70
2018-09-09T12:30:23.711Z,21.70
2018-09-09T12:32:52.327Z,21.80
2018-09-09T12:35:20.956Z,21.80
2018-09-09T12:37:49.498Z,21.80
2018-09-09T12:40:17.963Z,21.70
2018-09-09T12:42:50.696Z,21.80
2018-09-09T12:47:27.969Z,21.80
2018-09-09T12:49:56.583Z,21.90
2018-09-09T12:52:25.120Z,22.10
2018-09-09T12:54:53.603Z,22.30
2018-09-09T12:57:22.126Z,22.50
2018-09-09T12:59:50.675Z,22.70
2018-09-09T13:02:19.144Z,22.80
2018-09-09T13:04:47.743Z,22.90
2018-09-09T13:07:16.224Z,23.00
2018-09-09T13:09:44.780Z,23.10
2018-09-09T13:12:13.419Z,23.30
2018-09-09T13:14:41.937Z,23.20
2018-09-09T13:17:10.418Z,23.20
2018-09-09T13:19:38.918Z,23.10
2018-09-09T13:22:07.460Z,23.00
2018-09-09T13:24:35.919Z,23.10
2018-09-09T13:27:04.513Z,23.40
2018-09-09T13:29:32.991Z,23.50
2018-09-09T13:32:01.527Z,23.70
2018-09-09T13:34:30.020Z,23.90
2018-09-09T13:36:58.519Z,23.90
2018-09-09T13:39:27.034Z,23.80
2018-09-09T13:41:55.574Z,23.70
2018-09-09T13:44:24.114Z,23.60
2018-09-09T13:46:52.727Z,23.60
2018-09-09T13:49:21.235Z,23.60
2018-09-09T13:51:49.784Z,23.70
2018-09-09T13:54:18.296Z,24.00
2018-09-09T13:56:46.811Z,24.10
2018-09-09T13:59:15.312Z,23.90
2018-09-09T14:01:43.871Z,23.80
2018-09-09T14:04:12.372Z,23.70
2018-09-09T14:06:40.880Z,23.40
2018-09-09T14:09:09.902Z,23.10
2018-09-09T14:11:38.590Z,22.90
2018-09-09T14:14:07.436Z,22.80
2018-09-09T14:16:36.126Z,22.90
2018-09-09T14:19:04.771Z,23.00
2018-09-09T14:21:33.422Z,23.00
2018-09-09T14:24:01.892Z,23.10
2018-09-09T14:26:30.410Z,23.20
2018-09-09T14:29:00.095Z,23.30
2018-09-09T14:31:29.423Z,23.30
2018-09-09T14:33:57.892Z,23.50
2018-09-09T14:36:26.423Z,23.60
2018-09-09T14:38:54.979Z,23.90
2018-09-09T14:41:23.570Z,23.90
2018-09-09T14:43:52.198Z,23.90
2018-09-09T14:46:21.134Z,23.80
2018-09-09T14:48:49.663Z,23.70
2018-09-09T14:51:19.223Z,23.60
2018-09-09T14:53:47.759Z,23.70
2018-09-09T14:56:16.246Z,23.70
2018-09-09T14:58:44.813Z,23.80
2018-09-09T15:01:13.407Z,24.10
2018-09-09T15:03:41.934Z,24.30
2018-09-09T15:06:10.475Z,24.40
2018-09-09T15:08:39.083Z,24.30
2018-09-09T15:11:07.535Z,24.20
2018-09-09T15:13:36.074Z,24.30
2018-09-09T15:16:04.772Z,24.10
2018-09-09T15:18:33.451Z,23.80
2018-09-09T15:21:01.992Z,23.60
2018-09-09T15:23:30.548Z,23.60
2018-09-09T15:25:59.074Z,23.50
2018-09-09T15:28:27.635Z,23.20
2018-09-09T15:30:56.135Z,23.00
2018-09-09T15:33:24.584Z,22.90
2018-09-09T15:35:53.107Z,23.00
2018-09-09T15:38:22.901Z,23.00
2018-09-09T15:40:51.427Z,23.00
2018-09-09T15:43:19.999Z,22.90
2018-09-09T15:45:48.475Z,22.80
2018-09-09T15:48:17.025Z,22.60
2018-09-09T15:50:45.545Z,22.50
2018-09-09T15:53:14.041Z,22.30
2018-09-09T15:55:42.595Z,22.10
2018-09-09T15:58:11.089Z,21.90
2018-09-09T16:00:39.629Z,21.70
2018-09-09T16:03:08.346Z,21.50
2018-09-09T16:05:36.848Z,21.40
2018-09-09T16:08:05.401Z,21.40
2018-09-09T16:10:33.916Z,21.30
2018-09-09T16:13:02.430Z,21.30
2018-09-09T16:15:30.948Z,21.30
2018-09-09T16:17:59.429Z,21.30
2018-09-09T16:20:27.955Z,21.30
2018-09-09T16:22:56.433Z,21.30
2018-09-09T16:25:24.965Z,21.40
2018-09-09T16:27:53.410Z,21.60
2018-09-09T16:30:21.897Z,21.70
2018-09-09T16:32:50.437Z,21.80
2018-09-09T16:35:18.960Z,21.80
2018-09-09T16:37:47.470Z,21.90
2018-09-09T16:40:16.040Z,21.90
2018-09-09T16:42:44.507Z,21.90
2018-09-09T16:45:13.087Z,21.80
2018-09-09T16:47:41.568Z,21.60
2018-09-09T16:50:10.148Z,21.50
2018-09-09T16:52:38.636Z,21.30
2018-09-09T16:55:07.163Z,21.10
2018-09-09T16:57:35.599Z,20.90
2018-09-09T17:00:05.654Z,20.80
2018-09-09T17:02:34.140Z,20.70
2018-09-09T17:05:02.595Z,20.60
2018-09-09T17:07:31.124Z,20.50
2018-09-09T17:09:59.588Z,20.40
2018-09-09T17:12:28.104Z,20.30
2018-09-09T17:14:56.542Z,20.20
2018-09-09T17:17:25.037Z,20.10
2018-09-09T17:19:53.499Z,20.10
2018-09-09T17:22:21.983Z,20.00
2018-09-09T17:24:50.440Z,20.00
2018-09-09T17:27:18.924Z,19.90
2018-09-09T17:29:47.401Z,19.90
2018-09-09T17:32:15.923Z,19.80
2018-09-09T17:34:44.413Z,19.70
2018-09-09T17:37:12.913Z,19.60
2018-09-09T17:39:41.431Z,19.50
2018-09-09T17:42:09.893Z,19.40
2018-09-09T17:44:38.363Z,19.30
2018-09-09T17:47:07.500Z,19.20
2018-09-09T17:49:36.003Z,19.10
2018-09-09T17:52:04.450Z,19.10
2018-09-09T17:54:32.942Z,19.00
2018-09-09T17:57:01.506Z,19.00
2018-09-09T17:59:29.986Z,18.90
2018-09-09T18:01:58.424Z,18.90
2018-09-09T18:04:26.941Z,18.80
2018-09-09T18:06:55.424Z,18.70
2018-09-09T18:09:23.899Z,18.60
2018-09-09T18:11:52.411Z,18.60
2018-09-09T18:14:21.063Z,18.60
2018-09-09T18:16:49.564Z,18.60
2018-09-09T18:19:18.066Z,18.60
2018-09-09T18:21:46.573Z,18.60
2018-09-09T18:24:15.040Z,18.60
2018-09-09T18:26:43.525Z,18.50
2018-09-09T18:29:11.962Z,18.50
2018-09-09T18:31:40.497Z,18.50
2018-09-09T18:34:08.986Z,18.50
2018-09-09T18:36:37.479Z,18.40
2018-09-09T18:39:07.853Z,18.40
2018-09-09T18:41:36.295Z,18.30
2018-09-09T18:44:04.804Z,18.40
2018-09-09T18:46:33.383Z,18.30
2018-09-09T18:49:02.009Z,18.30
2018-09-09T18:51:30.484Z,18.30
2018-09-09T18:53:58.974Z,18.20
2018-09-09T18:56:28.605Z,18.10
2018-09-09T18:58:57.091Z,18.10
2018-09-09T19:01:32.100Z,18.10
2018-09-09T19:04:00.627Z,18.10
2018-09-09T19:06:29.159Z,18.10
2018-09-09T19:08:57.670Z,18.10
2018-09-09T19:11:26.200Z,18.10
2018-09-09T19:13:54.649Z,18.10
2018-09-09T19:16:23.202Z,18.10
2018-09-09T19:18:51.737Z,18.20
2018-09-09T19:21:20.263Z,18.10
2018-09-09T19:23:48.943Z,18.10
2018-09-09T19:26:17.387Z,18.10
2018-09-09T19:28:46.558Z,18.10
2018-09-09T19:31:15.051Z,18.10
2018-09-09T19:33:43.527Z,18.20
2018-09-09T19:36:12.036Z,18.20
2018-09-09T19:38:40.633Z,18.10
2018-09-09T19:41:09.117Z,18.20
2018-09-09T19:43:37.584Z,18.20
2018-09-09T19:46:06.200Z,18.20
2018-09-09T19:48:34.720Z,18.20
2018-09-09T19:51:03.329Z,18.10
2018-09-09T19:53:31.860Z,18.10
2018-09-09T19:56:00.420Z,18.00
2018-09-09T19:58:29.040Z,18.00
2018-09-09T20:00:57.461Z,17.90
2018-09-09T20:03:26.178Z,17.90
2018-09-09T20:05:54.697Z,17.80
2018-09-09T20:08:23.168Z,17.70
2018-09-09T20:10:51.694Z,17.60
2018-09-09T20:13:20.216Z,17.50
2018-09-09T20:15:48.804Z,17.40
2018-09-09T20:18:17.292Z,17.30
2018-09-09T20:20:45.800Z,17.20
2018-09-09T20:23:14.324Z,17.10
2018-09-09T20:25:42.931Z,17.10
2018-09-09T20:28:11.470Z,17.00
2018-09-09T20:30:40.476Z,17.00
2018-09-09T20:33:08.944Z,16.90
2018-09-09T20:35:37.468Z,16.90
2018-09-09T20:38:06.032Z,16.90
2018-09-09T20:40:34.541Z,16.90
2018-09-09T20:43:03.038Z,16.90
2018-09-09T20:45:31.475Z,16.90
2018-09-09T20:48:00.216Z,16.90
2018-09-09T20:50:28.729Z,16.90
2018-09-09T20:52:57.228Z,16.90
2018-09-09T20:55:25.741Z,17.00
2018-09-09T20:57:54.181Z,17.00
2018-09-09T21:00:22.741Z,17.00
2018-09-09T21:02:51.239Z,17.10
2018-09-09T21:05:19.708Z,17.10
2018-09-09T21:07:48.182Z,17.10
2018-09-09T21:10:16.681Z,17.20
2018-09-09T21:12:45.348Z,17.10
2018-09-09T21:15:13.832Z,17.00
2018-09-09T21:17:42.319Z,17.00
2018-09-09T21:20:10.852Z,16.90
2018-09-09T21:22:39.379Z,16.90
2018-09-09T21:25:07.877Z,16.80
2018-09-09T21:27:36.393Z,16.80
2018-09-09T21:30:04.990Z,16.80
2018-09-09T21:32:33.563Z,16.70
2018-09-09T21:35:02.187Z,16.70
2018-09-09T21:37:30.704Z,16.70
2018-09-09T21:39:59.175Z,16.70
2018-09-09T21:42:27.701Z,16.60
2018-09-09T21:44:56.185Z,16.60
2018-09-09T21:47:24.703Z,16.70
2018-09-09T21:49:53.188Z,16.70
2018-09-09T21:52:21.707Z,16.70
2018-09-09T21:54:50.166Z,16.70
2018-09-09T21:57:18.674Z,16.80
2018-09-09T21:59:47.176Z,16.80
2018-09-09T22:02:15.610Z,16.80
2018-09-09T22:04:44.052Z,16.80
2018-09-09T22:07:13.695Z,16.80
2018-09-09T22:09:43.555Z,16.80
2018-09-09T22:12:12.845Z,16.70
2018-09-09T22:14:42.093Z,16.70
2018-09-09T22:17:11.259Z,16.70
2018-09-09T22:19:39.760Z,16.70
2018-09-09T22:22:08.247Z,16.70
2018-09-09T22:24:36.756Z,16.70
2018-09-09T22:27:05.325Z,16.60
2018-09-09T22:29:33.784Z,16.60
2018-09-09T22:32:02.268Z,16.50
2018-09-09T22:34:30.741Z,16.50
2018-09-09T22:36:59.193Z,16.50
2018-09-09T22:39:27.711Z,16.50
2018-09-09T22:41:56.159Z,16.40
2018-09-09T22:44:24.664Z,16.40
2018-09-09T22:46:53.166Z,16.40
2018-09-09T22:49:21.615Z,16.40
2018-09-09T22:51:50.160Z,16.40
2018-09-09T22:54:18.651Z,16.40
2018-09-09T22:56:47.108Z,16.40
2018-09-09T22:59:15.648Z,16.40
2018-09-09T23:01:44.107Z,16.40
2018-09-09T23:04:12.621Z,16.40
2018-09-09T23:06:41.168Z,16.40
2018-09-09T23:09:11.116Z,16.40
2018-09-09T23:11:39.616Z,16.40
2018-09-09T23:14:08.428Z,16.40
2018-09-09T23:16:36.959Z,16.40
2018-09-09T23:19:05.596Z,16.40
2018-09-09T23:21:34.097Z,16.40
2018-09-09T23:24:02.610Z,16.50
2018-09-09T23:26:31.053Z,16.50
2018-09-09T23:28:59.554Z,16.50
2018-09-09T23:31:27.992Z,16.50
2018-09-09T23:33:56.499Z,16.60
2018-09-09T23:36:25.002Z,16.60
2018-09-09T23:38:53.522Z,16.60
2018-09-09T23:41:22.002Z,16.60
2018-09-09T23:43:50.515Z,16.50
2018-09-09T23:46:19.006Z,16.50
2018-09-09T23:48:47.542Z,16.50
2018-09-09T23:51:16.059Z,16.50
2018-09-09T23:53:44.545Z,16.50
2018-09-09T23:56:13.021Z,16.40
2018-09-09T23:58:41.523Z,16.50
